createdAt,value
2023-04-14T00:00:05.527Z,29.70
2023-04-14T00:02:42.559Z,29.70
2023-04-14T00:05:13.442Z,29.60
2023-04-14T00:07:43.494Z,29.70
2023-04-14T00:10:13.640Z,29.70
2023-04-14T00:12:43.795Z,29.80
2023-04-14T00:15:13.925Z,29.80
2023-04-14T00:17:44.256Z,29.90
2023-04-14T00:20:14.156Z,29.80
2023-04-14T00:22:44.175Z,29.90
2023-04-14T00:25:14.073Z,29.80
2023-04-14T00:27:44.337Z,29.90
2023-04-14T00:30:14.365Z,30.00
2023-04-14T00:32:44.315Z,30.00
2023-04-14T00:35:14.165Z,30.00
2023-04-14T00:37:44.409Z,30.00
2023-04-14T00:40:14.295Z,30.10
2023-04-14T00:42:48.762Z,30.20
2023-04-14T00:45:18.997Z,30.20
2023-04-14T00:47:52.176Z,30.30
2023-04-14T00:50:23.443Z,30.20
2023-04-14T00:52:55.064Z,30.30
2023-04-14T00:55:25.385Z,30.40
2023-04-14T00:57:56.557Z,30.40
2023-04-14T01:00:27.043Z,30.40
2023-04-14T01:02:57.840Z,30.50
2023-04-14T01:05:28.263Z,30.50
2023-04-14T01:07:58.292Z,30.50
2023-04-14T01:10:36.410Z,30.60
2023-04-14T01:13:35.074Z,30.70
2023-04-14T01:16:31.897Z,30.80
2023-04-14T01:19:38.896Z,30.90
2023-04-14T01:22:11.192Z,30.90
2023-04-14T01:25:20.478Z,31.00
2023-04-14T01:28:29.557Z,31.00
2023-04-14T01:31:26.010Z,31.00
2023-04-14T01:34:35.284Z,31.20
2023-04-14T01:37:17.874Z,31.40
2023-04-14T01:40:00.603Z,31.40
2023-04-14T01:42:38.230Z,31.50
2023-04-14T01:45:17.495Z,31.40
2023-04-14T01:47:48.427Z,31.50
2023-04-14T01:50:21.192Z,31.50
2023-04-14T01:52:58.801Z,31.50
2023-04-14T01:55:31.580Z,31.40
2023-04-14T01:58:03.186Z,31.50
2023-04-14T02:00:37.422Z,31.60
2023-04-14T02:03:09.501Z,31.70
2023-04-14T02:05:41.737Z,31.70
2023-04-14T02:08:15.683Z,31.70
2023-04-14T02:10:48.265Z,31.70
2023-04-14T02:13:21.565Z,31.80
2023-04-14T02:15:53.188Z,31.80
2023-04-14T02:18:25.679Z,31.90
2023-04-14T02:20:57.791Z,32.00
2023-04-14T02:23:28.163Z,32.10
2023-04-14T02:26:04.456Z,32.30
2023-04-14T02:28:37.124Z,32.30
2023-04-14T02:31:14.828Z,32.40
2023-04-14T02:33:47.823Z,32.50
2023-04-14T02:36:25.180Z,32.40
2023-04-14T02:39:01.030Z,32.50
2023-04-14T02:41:33.367Z,32.50
2023-04-14T02:44:20.046Z,32.50
2023-04-14T02:47:08.306Z,32.60
2023-04-14T02:49:46.464Z,32.80
2023-04-14T02:52:21.069Z,32.90
2023-04-14T02:54:53.609Z,33.10
2023-04-14T02:57:25.271Z,33.20
2023-04-14T02:59:57.568Z,33.20
2023-04-14T03:02:29.364Z,33.20
2023-04-14T03:05:08.040Z,33.20
2023-04-14T03:07:58.161Z,33.20
2023-04-14T03:10:30.488Z,33.30
2023-04-14T03:13:05.647Z,33.60
2023-04-14T03:15:37.705Z,33.50
2023-04-14T03:18:09.005Z,33.70
2023-04-14T03:20:39.970Z,34.00
2023-04-14T03:23:13.835Z,34.30
2023-04-14T03:25:53.761Z,34.30
2023-04-14T03:28:32.327Z,34.10
2023-04-14T03:31:07.090Z,34.30
2023-04-14T03:33:55.791Z,34.60
2023-04-14T03:36:32.984Z,34.80
2023-04-14T03:39:06.640Z,34.90
2023-04-14T03:41:49.089Z,34.80
2023-04-14T03:44:21.788Z,35.00
2023-04-14T03:46:56.010Z,35.00
2023-04-14T03:49:27.543Z,35.20
2023-04-14T03:52:09.636Z,35.50
2023-04-14T03:54:43.462Z,35.70
2023-04-14T03:57:19.312Z,35.80
2023-04-14T03:59:52.139Z,35.80
2023-04-14T04:02:27.857Z,35.90
2023-04-14T04:05:00.872Z,35.70
2023-04-14T04:07:33.645Z,35.80
2023-04-14T04:10:08.709Z,36.20
2023-04-14T04:12:40.809Z,36.30
2023-04-14T04:15:12.127Z,36.20
2023-04-14T04:17:45.876Z,36.40
2023-04-14T04:20:17.889Z,36.30
2023-04-14T04:22:53.901Z,35.90
2023-04-14T04:25:24.052Z,35.90
2023-04-14T04:28:04.172Z,35.80
2023-04-14T04:30:40.408Z,35.70
2023-04-14T04:33:12.390Z,35.60
2023-04-14T04:35:44.650Z,35.70
2023-04-14T04:38:15.683Z,35.80
2023-04-14T04:40:48.225Z,36.10
2023-04-14T04:43:24.254Z,36.50
2023-04-14T04:46:26.506Z,36.40
2023-04-14T04:48:57.580Z,36.40
2023-04-14T04:51:30.265Z,36.50
2023-04-14T04:54:00.341Z,36.40
2023-04-14T04:56:30.580Z,36.80
2023-04-14T04:59:04.879Z,37.20
2023-04-14T05:01:35.079Z,37.40
2023-04-14T05:04:05.685Z,37.10
2023-04-14T05:06:39.340Z,37.30
2023-04-14T05:09:09.590Z,37.60
2023-04-14T05:11:39.522Z,37.70
2023-04-14T05:14:09.743Z,37.70
2023-04-14T05:16:39.634Z,37.50
2023-04-14T05:19:09.666Z,37.60
2023-04-14T05:21:39.518Z,37.70
2023-04-14T05:24:11.146Z,37.70
2023-04-14T05:29:14.165Z,37.70
2023-04-14T05:31:44.106Z,37.70
2023-04-14T05:34:14.209Z,37.70
2023-04-14T05:36:44.112Z,37.80
2023-04-14T05:39:15.078Z,37.80
2023-04-14T05:41:44.857Z,37.80
2023-04-14T05:44:14.991Z,37.80
2023-04-14T05:46:44.935Z,37.60
2023-04-14T05:49:14.982Z,37.70
2023-04-14T05:51:45.363Z,37.70
2023-04-14T05:54:15.970Z,37.60
2023-04-14T05:56:45.786Z,37.70
2023-04-14T05:59:17.795Z,37.80
2023-04-14T06:01:48.082Z,37.90
2023-04-14T06:04:18.427Z,37.90
2023-04-14T06:06:48.621Z,37.90
2023-04-14T06:09:18.372Z,37.80
2023-04-14T06:11:48.333Z,38.00
2023-04-14T06:14:18.142Z,38.20
2023-04-14T06:16:48.189Z,38.30
2023-04-14T06:19:20.241Z,38.40
2023-04-14T06:21:50.517Z,38.40
2023-04-14T06:24:20.364Z,38.30
2023-04-14T06:26:50.373Z,38.30
2023-04-14T06:29:20.713Z,38.20
2023-04-14T06:31:53.221Z,38.20
2023-04-14T06:34:23.415Z,38.20
2023-04-14T06:36:54.392Z,38.10
2023-04-14T06:39:24.826Z,38.20
2023-04-14T06:41:54.760Z,38.20
2023-04-14T06:44:25.879Z,38.00
2023-04-14T06:46:57.167Z,38.10
2023-04-14T06:49:27.418Z,37.90
2023-04-14T06:51:57.826Z,37.90
2023-04-14T06:54:28.126Z,38.10
2023-04-14T06:56:59.505Z,38.30
2023-04-14T06:59:31.349Z,38.40
2023-04-14T07:02:01.290Z,38.50
2023-04-14T07:04:31.645Z,38.60
2023-04-14T07:07:03.004Z,38.70
2023-04-14T07:09:33.271Z,38.70
2023-04-14T07:12:05.534Z,38.50
2023-04-14T07:14:35.727Z,38.60
2023-04-14T07:17:05.500Z,38.30
2023-04-14T07:19:35.482Z,38.60
2023-04-14T07:22:05.349Z,38.60
2023-04-14T07:24:35.539Z,38.70
2023-04-14T07:27:05.302Z,38.80
2023-04-14T07:29:36.392Z,38.70
2023-04-14T07:32:06.718Z,38.80
2023-04-14T07:34:36.532Z,38.90
2023-04-14T07:37:06.460Z,38.70
2023-04-14T07:39:36.935Z,38.80
2023-04-14T07:42:07.331Z,39.00
2023-04-14T07:44:37.484Z,39.10
2023-04-14T07:47:07.475Z,39.00
2023-04-14T07:49:38.408Z,39.10
2023-04-14T07:52:09.280Z,39.10
2023-04-14T07:54:39.021Z,39.30
2023-04-14T07:57:11.467Z,38.80
2023-04-14T07:59:44.313Z,39.10
2023-04-14T08:02:14.501Z,39.00
2023-04-14T08:04:44.710Z,38.80
2023-04-14T08:07:14.675Z,39.20
2023-04-14T08:09:44.948Z,39.60
2023-04-14T08:12:15.239Z,39.80
2023-04-14T08:14:45.179Z,39.70
2023-04-14T08:17:15.565Z,39.90
2023-04-14T08:19:45.360Z,39.90
2023-04-14T08:22:15.516Z,39.90
2023-04-14T08:24:45.317Z,39.90
2023-04-14T08:27:15.377Z,40.20
2023-04-14T08:29:45.218Z,40.00
2023-04-14T08:32:15.479Z,40.20
2023-04-14T08:35:39.536Z,39.70
2023-04-14T08:37:35.929Z,40.00
2023-04-14T08:40:06.359Z,40.10
2023-04-14T08:42:36.411Z,40.00
2023-04-14T08:45:06.589Z,39.90
2023-04-14T08:47:39.784Z,40.10
2023-04-14T08:50:17.981Z,39.80
2023-04-14T08:52:51.730Z,40.00
2023-04-14T08:55:22.171Z,39.90
2023-04-14T08:57:53.697Z,40.10
2023-04-14T09:00:24.508Z,40.00
2023-04-14T09:02:56.367Z,40.10
2023-04-14T09:05:27.556Z,40.10
2023-04-14T09:07:57.845Z,39.90
2023-04-14T09:10:28.497Z,39.60
2023-04-14T09:12:59.187Z,39.30
2023-04-14T09:15:30.249Z,39.60
2023-04-14T09:18:00.325Z,39.80
2023-04-14T09:20:34.487Z,40.20
2023-04-14T09:23:11.542Z,40.20
2023-04-14T09:25:42.677Z,40.10
2023-04-14T09:28:12.926Z,40.10
2023-04-14T09:30:43.248Z,40.00
2023-04-14T09:33:24.052Z,39.70
2023-04-14T09:35:54.534Z,39.60
2023-04-14T09:38:44.199Z,39.70
2023-04-14T09:41:19.228Z,39.60
2023-04-14T09:43:49.481Z,39.60
2023-04-14T09:46:19.421Z,39.80
2023-04-14T09:48:59.267Z,39.80
2023-04-14T09:51:34.612Z,39.80
2023-04-14T09:54:06.549Z,39.70
2023-04-14T09:56:36.969Z,39.40
2023-04-14T09:59:07.088Z,39.30
2023-04-14T10:01:38.212Z,39.20
2023-04-14T10:04:25.466Z,39.10
2023-04-14T10:06:59.848Z,39.10
2023-04-14T10:09:31.435Z,39.10
2023-04-14T10:12:21.210Z,38.90
2023-04-14T10:14:51.568Z,38.80
2023-04-14T10:17:21.799Z,38.80
2023-04-14T10:19:52.028Z,38.60
2023-04-14T10:22:22.640Z,38.50
2023-04-14T10:24:54.115Z,38.40
2023-04-14T10:27:24.654Z,38.30
2023-04-14T10:29:55.405Z,38.20
2023-04-14T10:32:28.019Z,38.20
2023-04-14T10:35:10.764Z,38.20
2023-04-14T10:37:40.766Z,38.10
2023-04-14T10:40:11.334Z,37.90
2023-04-14T10:43:01.010Z,37.80
2023-04-14T10:45:31.020Z,37.90
2023-04-14T10:50:50.575Z,37.70
2023-04-14T10:53:20.559Z,37.60
2023-04-14T10:55:52.033Z,37.60
2023-04-14T10:58:24.828Z,37.60
2023-04-14T11:00:56.016Z,37.60
2023-04-14T11:03:28.250Z,37.60
2023-04-14T11:06:00.044Z,37.40
2023-04-14T11:08:37.374Z,37.40
2023-04-14T11:11:09.133Z,37.40
2023-04-14T11:13:40.343Z,37.40
2023-04-14T11:16:10.537Z,37.30
2023-04-14T11:18:46.779Z,37.20
2023-04-14T11:21:19.880Z,37.10
2023-04-14T11:23:50.775Z,37.00
2023-04-14T11:26:21.167Z,37.00
2023-04-14T11:28:50.998Z,36.90
2023-04-14T11:31:23.234Z,36.90
2023-04-14T11:33:53.323Z,36.80
2023-04-14T11:36:23.159Z,36.90
2023-04-14T11:38:53.417Z,36.80
2023-04-14T11:41:23.691Z,36.80
2023-04-14T11:43:54.501Z,36.60
2023-04-14T11:46:24.752Z,36.30
2023-04-14T11:48:59.103Z,36.40
2023-04-14T11:51:33.864Z,36.40
2023-04-14T11:54:04.842Z,36.40
2023-04-14T11:56:35.284Z,36.40
2023-04-14T11:59:06.883Z,36.30
2023-04-14T12:01:37.130Z,36.20
2023-04-14T12:04:08.102Z,36.20
2023-04-14T12:06:40.695Z,36.20
2023-04-14T12:09:13.719Z,36.10
2023-04-14T12:11:54.788Z,36.00
2023-04-14T12:14:24.963Z,35.90
2023-04-14T12:16:54.858Z,35.90
2023-04-14T12:19:25.277Z,35.90
2023-04-14T12:21:55.197Z,35.80
2023-04-14T12:24:25.372Z,35.80
2023-04-14T12:26:55.198Z,35.70
2023-04-14T12:29:25.449Z,35.60
2023-04-14T12:31:58.901Z,35.50
2023-04-14T12:34:29.781Z,35.60
2023-04-14T12:36:59.682Z,35.60
2023-04-14T12:39:30.009Z,35.60
2023-04-14T12:42:01.079Z,35.60
2023-04-14T12:44:31.886Z,35.30
2023-04-14T12:47:01.750Z,35.30
2023-04-14T12:49:37.798Z,35.20
2023-04-14T12:52:09.626Z,35.00
2023-04-14T12:54:59.501Z,34.80
2023-04-14T12:57:30.540Z,35.00
2023-04-14T13:00:06.568Z,35.10
2023-04-14T13:02:37.865Z,35.10
2023-04-14T13:05:08.342Z,35.00
2023-04-14T13:07:38.288Z,34.70
2023-04-14T13:10:09.212Z,34.40
2023-04-14T13:12:39.201Z,34.50
2023-04-14T13:16:10.296Z,34.50
2023-04-14T13:18:00.575Z,34.70
2023-04-14T13:20:32.441Z,34.70
2023-04-14T13:23:02.919Z,34.80
2023-04-14T13:25:32.725Z,34.70
2023-04-14T13:28:02.877Z,34.70
2023-04-14T13:30:33.764Z,34.60
2023-04-14T13:33:03.982Z,34.70
2023-04-14T13:35:33.854Z,34.60
2023-04-14T13:38:04.023Z,34.60
2023-04-14T13:40:34.129Z,34.50
2023-04-14T13:43:04.726Z,34.50
2023-04-14T13:45:35.537Z,34.40
2023-04-14T13:48:05.920Z,34.40
2023-04-14T13:50:35.877Z,34.50
2023-04-14T13:53:06.149Z,34.40
2023-04-14T13:55:37.511Z,34.40
2023-04-14T13:58:08.266Z,34.40
2023-04-14T14:00:38.388Z,34.30
2023-04-14T14:03:08.713Z,34.30
2023-04-14T14:05:38.598Z,34.20
2023-04-14T14:08:08.659Z,33.80
2023-04-14T14:10:38.725Z,34.00
2023-04-14T14:13:08.991Z,34.10
2023-04-14T14:15:39.832Z,34.00
2023-04-14T14:18:13.328Z,34.00
2023-04-14T14:20:43.464Z,34.00
2023-04-14T14:23:14.678Z,33.90
2023-04-14T14:25:47.050Z,33.90
2023-04-14T14:28:17.077Z,33.80
2023-04-14T14:30:46.931Z,33.80
2023-04-14T14:33:17.507Z,33.80
2023-04-14T14:35:47.751Z,33.80
2023-04-14T14:38:18.187Z,33.80
2023-04-14T14:40:48.676Z,33.80
2023-04-14T14:43:18.665Z,33.80
2023-04-14T14:45:48.669Z,33.70
2023-04-14T14:48:19.077Z,33.60
2023-04-14T14:50:49.003Z,33.70
2023-04-14T14:53:19.034Z,33.70
2023-04-14T14:55:48.851Z,33.70
2023-04-14T14:58:19.690Z,33.70
2023-04-14T15:00:49.665Z,33.70
2023-04-14T15:03:22.640Z,33.60
2023-04-14T15:05:56.004Z,33.60
2023-04-14T15:08:26.125Z,33.60
2023-04-14T15:10:56.214Z,33.50
2023-04-14T15:13:26.505Z,33.50
2023-04-14T15:15:56.364Z,33.30
2023-04-14T15:18:26.548Z,33.20
2023-04-14T15:20:57.018Z,33.10
2023-04-14T15:23:27.761Z,33.10
2023-04-14T15:25:57.702Z,32.90
2023-04-14T15:28:27.696Z,32.80
2023-04-14T15:30:57.641Z,32.60
2023-04-14T15:33:28.441Z,32.60
2023-04-14T15:35:58.534Z,32.40
2023-04-14T15:38:28.615Z,32.60
2023-04-14T15:40:59.159Z,32.90
2023-04-14T15:43:30.594Z,32.90
2023-04-14T15:46:00.811Z,33.00
2023-04-14T15:48:31.137Z,33.00
2023-04-14T15:51:01.274Z,33.00
2023-04-14T15:53:31.135Z,32.90
2023-04-14T15:56:01.390Z,33.00
2023-04-14T15:58:31.887Z,33.10
2023-04-14T16:01:02.261Z,33.10
2023-04-14T16:03:32.368Z,33.00
2023-04-14T16:06:08.616Z,33.10
2023-04-14T16:08:38.898Z,32.90
2023-04-14T16:11:09.512Z,32.90
2023-04-14T16:13:39.852Z,32.80
2023-04-14T16:16:09.755Z,32.80
2023-04-14T16:18:39.737Z,32.60
2023-04-14T16:21:10.011Z,32.40
2023-04-14T16:23:40.183Z,32.40
2023-04-14T16:26:10.175Z,32.30
2023-04-14T16:28:40.532Z,32.20
2023-04-14T16:31:10.858Z,31.90
2023-04-14T16:33:41.134Z,32.10
2023-04-14T16:36:11.108Z,32.40
2023-04-14T16:38:41.208Z,32.40
2023-04-14T16:41:12.131Z,32.40
2023-04-14T16:43:42.292Z,32.20
2023-04-14T16:46:12.436Z,32.40
2023-04-14T16:48:42.841Z,32.40
2023-04-14T16:51:13.734Z,32.00
2023-04-14T16:53:45.649Z,32.20
2023-04-14T16:56:15.816Z,32.00
2023-04-14T16:58:46.752Z,32.10
2023-04-14T17:01:17.517Z,32.10
2023-04-14T17:03:47.876Z,32.00
2023-04-14T17:06:17.741Z,32.20
2023-04-14T17:08:48.004Z,32.30
2023-04-14T17:11:18.146Z,32.30
2023-04-14T17:13:48.176Z,32.30
2023-04-14T17:16:18.179Z,32.40
2023-04-14T17:18:49.796Z,32.40
2023-04-14T17:21:19.819Z,32.30
2023-04-14T17:23:50.332Z,32.30
2023-04-14T17:26:21.522Z,32.10
2023-04-14T17:28:52.004Z,31.90
2023-04-14T17:31:22.521Z,31.80
2023-04-14T17:33:52.836Z,31.50
2023-04-14T17:36:22.698Z,31.60
2023-04-14T17:38:54.009Z,31.70
2023-04-14T17:41:24.368Z,31.90
2023-04-14T17:43:54.334Z,32.00
2023-04-14T17:46:30.900Z,32.10
2023-04-14T17:49:05.120Z,32.00
2023-04-14T17:51:35.880Z,31.90
2023-04-14T17:54:07.127Z,31.90
2023-04-14T17:56:37.176Z,31.90
2023-04-14T17:59:07.269Z,31.80
2023-04-14T18:01:37.681Z,31.80
2023-04-14T18:04:07.676Z,31.80
2023-04-14T18:06:38.076Z,31.70
2023-04-14T18:09:07.889Z,31.70
2023-04-14T18:11:38.131Z,31.30
2023-04-14T18:14:08.198Z,31.10
2023-04-14T18:16:38.969Z,31.40
2023-04-14T18:19:08.981Z,31.60
2023-04-14T18:21:39.634Z,31.60
2023-04-14T18:26:42.636Z,31.50
2023-04-14T18:29:13.562Z,31.60
2023-04-14T18:31:44.134Z,31.50
2023-04-14T18:34:15.298Z,31.60
2023-04-14T18:36:45.785Z,31.50
2023-04-14T18:39:17.759Z,31.50
2023-04-14T18:41:49.184Z,31.50
2023-04-14T18:44:19.182Z,31.50
2023-04-14T18:46:49.737Z,31.40
2023-04-14T18:49:20.583Z,31.40
2023-04-14T18:51:51.043Z,31.40
2023-04-14T18:54:20.889Z,31.20
2023-04-14T18:56:51.430Z,31.00
2023-04-14T18:59:21.569Z,31.10
2023-04-14T19:01:51.482Z,31.20
2023-04-14T19:04:22.440Z,31.20
2023-04-14T19:06:52.554Z,31.20
2023-04-14T19:09:22.343Z,30.80
2023-04-14T19:11:52.498Z,30.90
2023-04-14T19:14:22.397Z,31.10
2023-04-14T19:16:52.309Z,31.00
2023-04-14T19:19:22.067Z,31.10
2023-04-14T19:21:52.171Z,30.90
2023-04-14T19:24:21.905Z,30.80
2023-04-14T19:26:51.834Z,30.80
2023-04-14T19:29:21.659Z,30.80
2023-04-14T19:31:51.856Z,30.90
2023-04-14T19:34:21.690Z,30.90
2023-04-14T19:36:52.031Z,30.90
2023-04-14T19:39:22.423Z,30.90
2023-04-14T19:41:52.825Z,30.90
2023-04-14T19:44:22.574Z,30.90
2023-04-14T19:46:53.057Z,30.90
2023-04-14T19:49:22.996Z,30.90
2023-04-14T19:51:54.221Z,30.80
2023-04-14T19:54:24.174Z,30.80
2023-04-14T19:56:53.970Z,30.70
2023-04-14T19:59:24.495Z,30.60
2023-04-14T20:01:55.305Z,30.60
2023-04-14T20:04:25.814Z,30.50
2023-04-14T20:06:56.741Z,30.50
2023-04-14T20:09:27.409Z,30.40
2023-04-14T20:11:57.574Z,30.40
2023-04-14T20:14:27.462Z,30.40
2023-04-14T20:16:57.960Z,30.50
2023-04-14T20:19:27.878Z,30.60
2023-04-14T20:21:58.092Z,30.60
2023-04-14T20:24:27.961Z,30.60
2023-04-14T20:26:57.941Z,30.60
2023-04-14T20:29:27.874Z,30.30
2023-04-14T20:31:57.832Z,30.10
2023-04-14T20:34:28.080Z,30.00
2023-04-14T20:36:58.105Z,30.20
2023-04-14T20:39:27.921Z,30.30
2023-04-14T20:41:58.078Z,30.40
2023-04-14T20:44:28.017Z,30.50
2023-04-14T20:46:58.576Z,30.40
2023-04-14T20:49:28.615Z,30.40
2023-04-14T20:51:59.913Z,30.40
2023-04-14T20:54:30.106Z,30.00
2023-04-14T20:57:00.002Z,29.90
2023-04-14T20:59:30.713Z,30.20
2023-04-14T21:02:00.798Z,30.20
2023-04-14T21:04:30.633Z,30.10
2023-04-14T21:07:00.733Z,30.20
2023-04-14T21:09:31.585Z,30.30
2023-04-14T21:12:14.685Z,30.30
2023-04-14T21:15:43.501Z,30.20
2023-04-14T21:17:37.484Z,30.10
2023-04-14T21:20:08.107Z,30.10
2023-04-14T21:22:37.974Z,29.80
2023-04-14T21:25:08.582Z,29.70
2023-04-14T21:27:38.818Z,29.60
2023-04-14T21:30:10.580Z,29.60
2023-04-14T21:32:41.501Z,29.60
2023-04-14T21:35:11.753Z,29.60
2023-04-14T21:37:41.486Z,29.90
2023-04-14T21:40:12.601Z,30.00
2023-04-14T21:42:42.366Z,29.90
2023-04-14T21:45:12.334Z,29.90
2023-04-14T21:47:42.600Z,29.90
2023-04-14T21:50:12.630Z,29.90
2023-04-14T21:52:42.944Z,29.90
2023-04-14T21:55:12.675Z,29.90
2023-04-14T21:57:49.671Z,29.60
2023-04-14T22:00:19.908Z,29.60
2023-04-14T22:02:50.229Z,29.60
2023-04-14T22:05:21.369Z,29.70
2023-04-14T22:07:51.388Z,29.70
2023-04-14T22:10:23.149Z,29.70
2023-04-14T22:12:53.464Z,29.60
2023-04-14T22:15:23.808Z,29.60
2023-04-14T22:17:53.689Z,29.40
2023-04-14T22:20:25.231Z,29.20
2023-04-14T22:22:56.049Z,29.20
2023-04-14T22:25:25.993Z,29.40
2023-04-14T22:27:56.107Z,29.60
2023-04-14T22:30:25.810Z,29.60
2023-04-14T22:32:55.680Z,29.70
2023-04-14T22:35:25.580Z,29.40
2023-04-14T22:37:55.637Z,29.20
2023-04-14T22:40:26.016Z,29.00
2023-04-14T22:42:56.109Z,29.20
2023-04-14T22:45:25.864Z,29.50
2023-04-14T22:47:55.849Z,29.50
2023-04-14T22:50:26.030Z,29.60
2023-04-14T22:52:55.984Z,29.50
2023-04-14T22:55:25.744Z,29.60
2023-04-14T22:57:55.738Z,29.60
2023-04-14T23:00:26.229Z,29.60
2023-04-14T23:02:57.263Z,29.60
2023-04-14T23:05:27.101Z,29.10
2023-04-14T23:07:57.083Z,28.90
2023-04-14T23:10:26.918Z,29.20
2023-04-14T23:12:57.051Z,29.30
2023-04-14T23:15:26.678Z,29.40
2023-04-14T23:17:57.146Z,29.40
2023-04-14T23:20:27.088Z,29.40
2023-04-14T23:22:57.601Z,29.30
2023-04-14T23:25:27.210Z,29.30
2023-04-14T23:27:57.066Z,29.30
2023-04-14T23:30:27.534Z,29.20
2023-04-14T23:32:57.919Z,29.20
2023-04-14T23:35:27.656Z,29.00
2023-04-14T23:38:03.554Z,29.10
2023-04-14T23:40:35.195Z,29.00
2023-04-14T23:43:05.293Z,29.20
2023-04-14T23:45:38.494Z,29.30
2023-04-14T23:48:09.193Z,29.20
2023-04-14T23:51:00.487Z,29.10
2023-04-14T23:53:28.906Z,29.10
2023-04-14T23:55:58.908Z,29.10
2023-04-14T23:58:30.353Z,29.10
